首页
METAR-TAF:

METAR-TAF

机场 :

奥斯陆, 挪威

奥斯陆加勒穆恩机场

纬度: 60-12N, 经度: 011-05E, 海拔: 208米

当前天气观测

该预报发布于50分钟前的23:20 UTC
风速4节,风向东转东北
温度 -3°C
湿度 86%
气压 990 hPa
能见度10公里或以上
少量云层高于1000英尺
多云层高于1600英尺
小雪

METAR: ENGM 172320Z 06004KT 9999 -SN FEW010 BKN016 M03/M05 Q0990

时间: 01:10 (00:10 UTC)

预报

预报有效从18日的 00点(UTC)到 18日的 24点(UTC)
风速5节,风向东北
能见度10公里或以上
少量云层高于800英尺
阴天层高于1800英尺
小雪
短暂存在
从 18日的 00点(UTC)到 18日的 18点(UTC)
能見度: 2500
层高于800英尺
小雪

TAF: ENGM 1800/1824 04005KT 9999 -SN FEW008 OVC018 TEMPO 1800/1818 2500 -SN VV008

超过4000个机场的气象观测和天气预报(METAR&TAF报告)。

可查询的气象台以黄色和红色小点在地图上表示。

将鼠标移到小点上方,可查看气象台名称。

然后点击查看天气观测和预报。

如需切换地图:点击带黑十字的绿色按钮放大地图;点击带横线的绿色按钮缩小地图;或者点击绿色箭头查看邻近地区的地图。


METAR-TAF: